createdAt,value
2023-04-04T18:07:10.593Z,9.85
2023-04-04T18:09:37.769Z,15.93
2023-04-04T18:12:04.940Z,13.07
2023-04-04T18:14:32.220Z,7.38
2023-04-04T18:16:59.427Z,7.32
2023-04-04T18:19:26.590Z,4.72
2023-04-04T18:21:59.799Z,6.20
2023-04-04T18:24:28.018Z,6.63
2023-04-04T18:26:55.370Z,8.60
2023-04-04T18:29:22.703Z,6.05
2023-04-04T18:31:50.024Z,5.53
2023-04-04T18:34:18.244Z,10.27
2023-04-04T18:36:48.054Z,6.68
2023-04-04T18:39:18.475Z,6.35
2023-04-04T18:41:46.489Z,12.00
2023-04-04T18:44:13.689Z,17.33
2023-04-04T18:46:40.970Z,14.98
2023-04-04T18:49:08.195Z,19.65
2023-04-04T18:51:35.320Z,17.48
2023-04-04T18:54:02.664Z,18.27
2023-04-04T18:56:29.859Z,10.82
2023-04-04T18:58:57.021Z,6.68
2023-04-04T19:01:24.824Z,11.70
2023-04-04T19:03:53.771Z,7.22
2023-04-04T19:06:24.998Z,4.22
2023-04-04T19:08:52.806Z,8.88
2023-04-04T19:11:20.188Z,8.25
2023-04-04T19:13:47.569Z,8.85
2023-04-04T19:16:14.671Z,6.57
2023-04-04T19:18:43.573Z,6.45
2023-04-04T19:21:11.552Z,6.13
2023-04-04T19:23:38.743Z,10.80
2023-04-04T19:26:07.369Z,8.15
2023-04-04T19:28:34.502Z,9.20
2023-04-04T19:31:04.340Z,12.20
2023-04-04T19:33:33.140Z,10.18
2023-04-04T19:36:02.748Z,14.32
2023-04-04T19:38:32.377Z,13.20
2023-04-04T19:41:01.239Z,15.95
2023-04-04T19:43:29.442Z,20.70
2023-04-04T19:45:58.395Z,28.73
2023-04-04T19:48:44.180Z,30.13
2023-04-04T19:51:13.030Z,30.52
2023-04-04T19:53:40.774Z,24.88
2023-04-04T19:56:09.386Z,24.25
2023-04-04T19:58:36.935Z,24.02
2023-04-04T20:01:04.704Z,14.35
2023-04-04T20:03:36.921Z,10.23
2023-04-04T20:06:07.608Z,20.02
2023-04-04T20:08:36.514Z,10.50
2023-04-04T20:11:03.826Z,12.88
2023-04-04T20:13:32.878Z,13.98
2023-04-04T20:16:01.987Z,8.88
2023-04-04T20:18:29.928Z,11.15
2023-04-04T20:20:58.342Z,15.50
2023-04-04T20:23:28.924Z,17.98
2023-04-04T20:25:56.564Z,11.93
2023-04-04T20:28:28.279Z,17.27
2023-04-04T20:30:55.643Z,19.30
2023-04-04T20:33:33.178Z,12.48
2023-04-04T20:36:10.652Z,16.17
2023-04-04T20:38:38.791Z,10.50
2023-04-04T20:41:16.370Z,12.05
2023-04-04T20:43:49.894Z,12.02
2023-04-04T20:46:17.003Z,14.15
2023-04-04T20:48:46.778Z,15.25
2023-04-04T20:51:23.949Z,12.38
2023-04-04T20:53:52.015Z,16.73
2023-04-04T20:56:52.517Z,13.48
2023-04-04T20:59:30.989Z,14.05
2023-04-04T21:02:11.779Z,18.27
2023-04-04T21:04:40.347Z,12.68
2023-04-04T21:07:07.838Z,13.18
2023-04-04T21:09:34.971Z,12.68
2023-04-04T21:12:02.566Z,18.25
2023-04-04T21:14:34.598Z,12.57
2023-04-04T21:17:01.923Z,18.88
2023-04-04T21:19:29.709Z,20.35
2023-04-04T21:21:56.778Z,17.90
2023-04-04T21:24:25.896Z,10.77
2023-04-04T21:26:53.209Z,4.75
2023-04-04T21:29:24.331Z,9.38
2023-04-04T21:31:52.651Z,9.80
2023-04-04T21:34:24.313Z,9.43
2023-04-04T21:36:56.954Z,7.90
2023-04-04T21:39:25.563Z,8.32
2023-04-04T21:41:53.843Z,7.10
2023-04-04T21:44:21.148Z,8.48
2023-04-04T21:46:48.431Z,11.98
2023-04-04T21:49:15.668Z,11.23
2023-04-04T21:51:43.162Z,6.63
2023-04-04T21:54:10.369Z,7.88
2023-04-04T21:56:38.316Z,4.38
2023-04-04T21:59:08.189Z,6.75
2023-04-04T22:01:36.194Z,9.20
2023-04-04T22:04:03.686Z,5.70
2023-04-04T22:06:31.079Z,11.40
2023-04-04T22:08:59.320Z,8.95
2023-04-04T22:11:27.173Z,9.85
2023-04-04T22:14:03.644Z,15.27
2023-04-04T22:16:31.825Z,9.55
2023-04-04T22:19:01.294Z,11.13
2023-04-04T22:21:28.774Z,9.52
2023-04-04T22:24:02.704Z,12.55
2023-04-04T22:26:33.032Z,13.00
2023-04-04T22:29:01.455Z,8.23
2023-04-04T22:31:28.866Z,15.20
2023-04-04T22:33:56.187Z,17.23
2023-04-04T22:36:25.227Z,12.52
2023-04-04T22:38:56.814Z,6.20
2023-04-04T22:41:27.245Z,7.65
2023-04-04T22:43:54.389Z,7.90
2023-04-04T22:46:21.592Z,6.85
2023-04-04T22:48:48.784Z,10.43
2023-04-04T22:51:16.462Z,9.23
2023-04-04T22:53:44.443Z,10.07
2023-04-04T22:56:12.075Z,4.82
2023-04-04T22:58:39.206Z,10.68
2023-04-04T23:01:06.617Z,4.25
2023-04-04T23:03:34.463Z,7.47
2023-04-04T23:06:01.648Z,10.40
2023-04-04T23:08:28.796Z,11.82
2023-04-04T23:10:56.197Z,13.88
2023-04-04T23:13:23.531Z,12.48
2023-04-04T23:15:50.661Z,13.68
2023-04-04T23:18:17.940Z,11.50
2023-04-04T23:20:45.078Z,14.95
2023-04-04T23:23:12.188Z,6.95
2023-04-04T23:25:39.285Z,8.15
2023-04-04T23:28:06.542Z,10.52
2023-04-04T23:30:33.717Z,14.55
2023-04-04T23:33:01.039Z,13.00
2023-04-04T23:35:28.204Z,4.97
2023-04-04T23:37:55.373Z,7.90
2023-04-04T23:40:22.600Z,10.68
2023-04-04T23:42:49.719Z,8.10
2023-04-04T23:45:17.025Z,12.90
2023-04-04T23:47:44.227Z,5.40
2023-04-04T23:50:11.756Z,6.07
2023-04-04T23:52:39.491Z,13.25
2023-04-04T23:55:07.313Z,6.72
2023-04-04T23:57:34.407Z,9.43
